sensor_id;sensor_type;location;lat;lon;timestamp;pressure;altitude;pressure_sealevel;temperature;humidity
74045;BME280;62389;51.412;5.436;2023-12-14T00:01:34;100709.16;;;7.36;100.00
74045;BME280;62389;51.412;5.436;2023-12-14T00:04:00;100712.66;;;7.35;100.00
74045;BME280;62389;51.412;5.436;2023-12-14T00:06:25;100716.19;;;7.34;100.00
74045;BME280;62389;51.412;5.436;2023-12-14T00:08:50;100715.41;;;7.31;100.00
74045;BME280;62389;51.412;5.436;2023-12-14T00:11:16;100722.44;;;7.29;100.00
74045;BME280;62389;51.412;5.436;2023-12-14T00:13:41;100732.91;;;7.25;100.00
74045;BME280;62389;51.412;5.436;2023-12-14T00:16:07;100739.09;;;7.23;100.00
74045;BME280;62389;51.412;5.436;2023-12-14T00:18:33;100746.13;;;7.19;100.00
74045;BME280;62389;51.412;5.436;2023-12-14T00:20:58;100754.91;;;7.15;100.00
74045;BME280;62389;51.412;5.436;2023-12-14T00:23:24;100758.50;;;7.11;100.00
74045;BME280;62389;51.412;5.436;2023-12-14T00:25:49;100760.34;;;7.08;100.00
74045;BME280;62389;51.412;5.436;2023-12-14T00:28:15;100763.91;;;7.05;100.00
74045;BME280;62389;51.412;5.436;2023-12-14T00:30:40;100773.50;;;7.03;100.00
74045;BME280;62389;51.412;5.436;2023-12-14T00:33:06;100777.03;;;7.00;100.00
74045;BME280;62389;51.412;5.436;2023-12-14T00:35:31;100785.81;;;6.98;100.00
74045;BME280;62389;51.412;5.436;2023-12-14T00:37:57;100791.09;;;6.95;100.00
74045;BME280;62389;51.412;5.436;2023-12-14T00:40:22;100803.28;;;6.93;100.00
74045;BME280;62389;51.412;5.436;2023-12-14T00:42:47;100806.00;;;6.88;100.00
74045;BME280;62389;51.412;5.436;2023-12-14T00:45:13;100814.69;;;6.87;100.00
74045;BME280;62389;51.412;5.436;2023-12-14T00:47:38;100821.69;;;6.85;100.00
74045;BME280;62389;51.412;5.436;2023-12-14T00:50:04;100834.75;;;6.84;100.00
74045;BME280;62389;51.412;5.436;2023-12-14T00:52:29;100833.00;;;6.83;100.00
74045;BME280;62389;51.412;5.436;2023-12-14T00:54:55;100836.50;;;6.82;100.00
74045;BME280;62389;51.412;5.436;2023-12-14T00:57:20;100836.66;;;6.77;100.00
74045;BME280;62389;51.412;5.436;2023-12-14T00:59:46;100845.41;;;6.74;100.00
74045;BME280;62389;51.412;5.436;2023-12-14T01:02:11;100845.56;;;6.68;100.00
74045;BME280;62389;51.412;5.436;2023-12-14T01:04:37;100843.13;;;6.62;100.00
74045;BME280;62389;51.412;5.436;2023-12-14T01:07:03;100853.63;;;6.59;100.00
74045;BME280;62389;51.412;5.436;2023-12-14T01:09:28;100861.47;;;6.56;100.00
74045;BME280;62389;51.412;5.436;2023-12-14T01:11:54;100865.94;;;6.51;100.00
74045;BME280;62389;51.412;5.436;2023-12-14T01:14:19;100856.53;;;6.47;100.00
74045;BME280;62389;51.412;5.436;2023-12-14T01:16:44;100854.81;;;6.46;100.00
74045;BME280;62389;51.412;5.436;2023-12-14T01:19:10;100865.38;;;6.40;100.00
74045;BME280;62389;51.412;5.436;2023-12-14T01:21:36;100870.75;;;6.34;100.00
74045;BME280;62389;51.412;5.436;2023-12-14T01:24:01;100877.81;;;6.29;100.00
74045;BME280;62389;51.412;5.436;2023-12-14T01:26:27;100876.16;;;6.25;100.00
74045;BME280;62389;51.412;5.436;2023-12-14T01:28:53;100890.97;;;6.21;100.00
74045;BME280;62389;51.412;5.436;2023-12-14T01:31:18;100900.56;;;6.17;100.00
74045;BME280;62389;51.412;5.436;2023-12-14T01:33:44;100905.81;;;6.16;100.00
74045;BME280;62389;51.412;5.436;2023-12-14T01:36:11;100915.41;;;6.12;100.00
74045;BME280;62389;51.412;5.436;2023-12-14T01:38:37;100931.00;;;6.12;100.00
74045;BME280;62389;51.412;5.436;2023-12-14T01:41:02;100921.59;;;6.08;100.00
74045;BME280;62389;51.412;5.436;2023-12-14T01:43:28;100931.13;;;6.06;100.00
74045;BME280;62389;51.412;5.436;2023-12-14T01:45:53;100934.69;;;6.04;100.00
74045;BME280;62389;51.412;5.436;2023-12-14T01:48:18;100946.88;;;6.00;100.00
74045;BME280;62389;51.412;5.436;2023-12-14T01:50:44;100946.97;;;5.95;100.00
74045;BME280;62389;51.412;5.436;2023-12-14T01:53:09;100948.78;;;5.90;100.00
74045;BME280;62389;51.412;5.436;2023-12-14T01:55:35;100954.91;;;5.88;100.00
74045;BME280;62389;51.412;5.436;2023-12-14T01:58:00;100962.72;;;5.88;100.00
74045;BME280;62389;51.412;5.436;2023-12-14T02:00:40;100965.25;;;5.89;100.00
74045;BME280;62389;51.412;5.436;2023-12-14T02:03:07;100973.88;;;5.91;100.00
74045;BME280;62389;51.412;5.436;2023-12-14T02:05:33;100974.72;;;5.93;100.00
74045;BME280;62389;51.412;5.436;2023-12-14T02:07:58;100966.03;;;5.94;100.00
74045;BME280;62389;51.412;5.436;2023-12-14T02:10:23;100990.38;;;5.89;100.00
74045;BME280;62389;51.412;5.436;2023-12-14T02:12:49;100987.91;;;5.83;100.00
74045;BME280;62389;51.412;5.436;2023-12-14T02:15:14;100985.28;;;5.84;100.00
74045;BME280;62389;51.412;5.436;2023-12-14T02:17:40;100996.50;;;5.85;100.00
74045;BME280;62389;51.412;5.436;2023-12-14T02:20:06;101001.69;;;5.85;100.00
74045;BME280;62389;51.412;5.436;2023-12-14T02:22:47;101013.97;;;5.77;100.00
74045;BME280;62389;51.412;5.436;2023-12-14T02:25:14;101014.06;;;5.74;100.00
74045;BME280;62389;51.412;5.436;2023-12-14T02:27:39;101021.00;;;5.71;100.00
74045;BME280;62389;51.412;5.436;2023-12-14T02:30:05;101021.97;;;5.67;100.00
74045;BME280;62389;51.412;5.436;2023-12-14T02:32:31;101025.44;;;5.68;100.00
74045;BME280;62389;51.412;5.436;2023-12-14T02:34:56;101034.94;;;5.67;100.00
74045;BME280;62389;51.412;5.436;2023-12-14T02:37:21;101029.69;;;5.70;100.00
74045;BME280;62389;51.412;5.436;2023-12-14T02:39:47;101033.06;;;5.74;100.00
74045;BME280;62389;51.412;5.436;2023-12-14T02:42:12;101037.38;;;5.75;100.00
74045;BME280;62389;51.412;5.436;2023-12-14T02:44:37;101040.00;;;5.74;100.00
74045;BME280;62389;51.412;5.436;2023-12-14T02:47:03;101056.44;;;5.74;100.00
74045;BME280;62389;51.412;5.436;2023-12-14T02:49:28;101050.31;;;5.77;100.00
74045;BME280;62389;51.412;5.436;2023-12-14T02:51:54;101057.28;;;5.75;100.00
74045;BME280;62389;51.412;5.436;2023-12-14T02:54:19;101059.91;;;5.73;100.00
74045;BME280;62389;51.412;5.436;2023-12-14T02:56:44;101064.25;;;5.72;100.00
74045;BME280;62389;51.412;5.436;2023-12-14T02:59:10;101072.91;;;5.71;100.00
74045;BME280;62389;51.412;5.436;2023-12-14T03:01:35;101076.41;;;5.70;100.00
74045;BME280;62389;51.412;5.436;2023-12-14T03:04:01;101073.00;;;5.68;100.00
74045;BME280;62389;51.412;5.436;2023-12-14T03:06:26;101072.13;;;5.66;100.00
74045;BME280;62389;51.412;5.436;2023-12-14T03:08:51;101080.00;;;5.63;100.00
74045;BME280;62389;51.412;5.436;2023-12-14T03:11:24;101081.75;;;5.61;100.00
74045;BME280;62389;51.412;5.436;2023-12-14T03:13:50;101085.19;;;5.63;100.00
74045;BME280;62389;51.412;5.436;2023-12-14T03:16:15;101089.63;;;5.58;100.00
74045;BME280;62389;51.412;5.436;2023-12-14T03:18:42;101088.78;;;5.58;100.00
74045;BME280;62389;51.412;5.436;2023-12-14T03:21:09;101087.91;;;5.57;100.00
74045;BME280;62389;51.412;5.436;2023-12-14T03:23:34;101097.41;;;5.58;100.00
74045;BME280;62389;51.412;5.436;2023-12-14T03:26:00;101096.59;;;5.55;100.00
74045;BME280;62389;51.412;5.436;2023-12-14T03:28:26;101092.31;;;5.52;100.00
74045;BME280;62389;51.412;5.436;2023-12-14T03:30:52;101105.34;;;5.49;100.00
74045;BME280;62389;51.412;5.436;2023-12-14T03:33:17;101097.69;;;5.43;100.00
74045;BME280;62389;51.412;5.436;2023-12-14T03:35:43;101107.25;;;5.39;100.00
74045;BME280;62389;51.412;5.436;2023-12-14T03:38:09;101098.63;;;5.39;100.00
74045;BME280;62389;51.412;5.436;2023-12-14T03:40:34;101112.47;;;5.38;100.00
74045;BME280;62389;51.412;5.436;2023-12-14T03:43:01;101110.75;;;5.38;100.00
74045;BME280;62389;51.412;5.436;2023-12-14T03:45:27;101113.34;;;5.38;100.00
74045;BME280;62389;51.412;5.436;2023-12-14T03:47:52;101117.59;;;5.41;100.00
74045;BME280;62389;51.412;5.436;2023-12-14T03:50:18;101121.91;;;5.42;100.00
74045;BME280;62389;51.412;5.436;2023-12-14T03:52:43;101125.34;;;5.44;100.00
74045;BME280;62389;51.412;5.436;2023-12-14T03:55:09;101131.41;;;5.41;100.00
74045;BME280;62389;51.412;5.436;2023-12-14T03:57:34;101139.25;;;5.40;100.00
74045;BME280;62389;51.412;5.436;2023-12-14T04:00:00;101139.19;;;5.43;100.00
74045;BME280;62389;51.412;5.436;2023-12-14T04:02:25;101142.66;;;5.43;100.00
74045;BME280;62389;51.412;5.436;2023-12-14T04:04:50;101142.69;;;5.40;100.00
74045;BME280;62389;51.412;5.436;2023-12-14T04:07:16;101141.06;;;5.35;100.00
74045;BME280;62389;51.412;5.436;2023-12-14T04:09:43;101145.44;;;5.33;100.00
74045;BME280;62389;51.412;5.436;2023-12-14T04:12:08;101141.09;;;5.32;100.00
74045;BME280;62389;51.412;5.436;2023-12-14T04:14:34;101145.44;;;5.33;100.00
74045;BME280;62389;51.412;5.436;2023-12-14T04:16:59;101144.59;;;5.31;100.00
74045;BME280;62389;51.412;5.436;2023-12-14T04:19:24;101138.63;;;5.26;100.00
74045;BME280;62389;51.412;5.436;2023-12-14T04:21:51;101149.00;;;5.27;100.00
74045;BME280;62389;51.412;5.436;2023-12-14T04:24:16;101148.91;;;5.30;100.00
74045;BME280;62389;51.412;5.436;2023-12-14T04:26:41;101152.31;;;5.34;100.00
74045;BME280;62389;51.412;5.436;2023-12-14T04:29:07;101160.91;;;5.37;100.00
74045;BME280;62389;51.412;5.436;2023-12-14T04:31:33;101164.31;;;5.39;100.00
74045;BME280;62389;51.412;5.436;2023-12-14T04:33:58;101173.00;;;5.38;100.00
74045;BME280;62389;51.412;5.436;2023-12-14T04:36:23;101179.97;;;5.35;100.00
74045;BME280;62389;51.412;5.436;2023-12-14T04:38:49;101191.25;;;5.31;100.00
74045;BME280;62389;51.412;5.436;2023-12-14T04:41:14;101192.13;;;5.31;100.00
74045;BME280;62389;51.412;5.436;2023-12-14T04:43:39;101192.13;;;5.33;100.00
74045;BME280;62389;51.412;5.436;2023-12-14T04:46:05;101200.69;;;5.36;100.00
74045;BME280;62389;51.412;5.436;2023-12-14T04:48:31;101205.88;;;5.36;100.00
74045;BME280;62389;51.412;5.436;2023-12-14T04:50:57;101212.78;;;5.36;100.00
74045;BME280;62389;51.412;5.436;2023-12-14T04:53:22;101225.84;;;5.31;100.00
74045;BME280;62389;51.412;5.436;2023-12-14T04:55:47;101232.84;;;5.28;100.00
74045;BME280;62389;51.412;5.436;2023-12-14T04:58:13;101233.69;;;5.28;100.00
74045;BME280;62389;51.412;5.436;2023-12-14T05:00:38;101245.75;;;5.29;100.00
74045;BME280;62389;51.412;5.436;2023-12-14T05:03:04;101249.25;;;5.27;100.00
74045;BME280;62389;51.412;5.436;2023-12-14T05:05:29;101244.94;;;5.27;100.00
74045;BME280;62389;51.412;5.436;2023-12-14T05:07:54;101242.34;;;5.27;100.00
74045;BME280;62389;51.412;5.436;2023-12-14T05:10:20;101240.63;;;5.26;100.00
74045;BME280;62389;51.412;5.436;2023-12-14T05:12:45;101251.91;;;5.24;100.00
74045;BME280;62389;51.412;5.436;2023-12-14T05:15:10;101257.13;;;5.20;100.00
74045;BME280;62389;51.412;5.436;2023-12-14T05:17:36;101265.81;;;5.18;100.00
74045;BME280;62389;51.412;5.436;2023-12-14T05:20:03;101272.75;;;5.17;100.00
74045;BME280;62389;51.412;5.436;2023-12-14T05:22:29;101275.31;;;5.19;100.00
74045;BME280;62389;51.412;5.436;2023-12-14T05:24:55;101279.59;;;5.22;100.00
74045;BME280;62389;51.412;5.436;2023-12-14T05:27:20;101286.47;;;5.24;100.00
74045;BME280;62389;51.412;5.436;2023-12-14T05:29:46;101289.88;;;5.26;100.00
74045;BME280;62389;51.412;5.436;2023-12-14T05:32:12;101301.13;;;5.27;100.00
74045;BME280;62389;51.412;5.436;2023-12-14T05:34:37;101309.78;;;5.27;100.00
74045;BME280;62389;51.412;5.436;2023-12-14T05:37:03;101314.97;;;5.26;100.00
74045;BME280;62389;51.412;5.436;2023-12-14T05:39:28;101312.44;;;5.23;100.00
74045;BME280;62389;51.412;5.436;2023-12-14T05:41:54;101315.03;;;5.23;100.00
74045;BME280;62389;51.412;5.436;2023-12-14T05:44:19;101326.25;;;5.25;100.00
74045;BME280;62389;51.412;5.436;2023-12-14T05:46:44;101330.53;;;5.26;100.00
74045;BME280;62389;51.412;5.436;2023-12-14T05:49:10;101331.41;;;5.25;100.00
74045;BME280;62389;51.412;5.436;2023-12-14T05:51:36;101348.69;;;5.26;100.00
74045;BME280;62389;51.412;5.436;2023-12-14T05:54:03;101358.25;;;5.24;100.00
74045;BME280;62389;51.412;5.436;2023-12-14T05:56:28;101362.63;;;5.18;100.00
74045;BME280;62389;51.412;5.436;2023-12-14T05:58:54;101372.16;;;5.18;100.00
74045;BME280;62389;51.412;5.436;2023-12-14T06:01:19;101373.84;;;5.19;100.00
74045;BME280;62389;51.412;5.436;2023-12-14T06:03:45;101374.69;;;5.23;100.00
74045;BME280;62389;51.412;5.436;2023-12-14T06:06:11;101370.31;;;5.25;100.00
74045;BME280;62389;51.412;5.436;2023-12-14T06:08:38;101373.78;;;5.25;100.00
74045;BME280;62389;51.412;5.436;2023-12-14T06:11:03;101380.75;;;5.20;100.00
74045;BME280;62389;51.412;5.436;2023-12-14T06:13:31;101391.09;;;5.22;100.00
74045;BME280;62389;51.412;5.436;2023-12-14T06:15:56;101385.06;;;5.21;100.00
74045;BME280;62389;51.412;5.436;2023-12-14T06:18:21;101387.69;;;5.19;100.00
74045;BME280;62389;51.412;5.436;2023-12-14T06:20:47;101396.34;;;5.18;100.00
74045;BME280;62389;51.412;5.436;2023-12-14T06:23:12;101399.78;;;5.19;100.00
74045;BME280;62389;51.412;5.436;2023-12-14T06:25:37;101392.88;;;5.19;100.00
74045;BME280;62389;51.412;5.436;2023-12-14T06:28:03;101408.41;;;5.23;100.00
74045;BME280;62389;51.412;5.436;2023-12-14T06:30:28;101404.91;;;5.25;100.00
74045;BME280;62389;51.412;5.436;2023-12-14T06:32:53;101414.41;;;5.25;100.00
74045;BME280;62389;51.412;5.436;2023-12-14T06:35:19;101419.56;;;5.28;100.00
74045;BME280;62389;51.412;5.436;2023-12-14T06:37:44;101423.91;;;5.27;100.00
74045;BME280;62389;51.412;5.436;2023-12-14T06:40:10;101430.84;;;5.25;100.00
74045;BME280;62389;51.412;5.436;2023-12-14T06:42:36;101432.56;;;5.25;100.00
74045;BME280;62389;51.412;5.436;2023-12-14T06:45:04;101438.63;;;5.25;100.00
74045;BME280;62389;51.412;5.436;2023-12-14T06:47:30;101436.03;;;5.25;100.00
74045;BME280;62389;51.412;5.436;2023-12-14T06:49:55;101436.94;;;5.23;100.00
74045;BME280;62389;51.412;5.436;2023-12-14T06:52:22;101433.47;;;5.20;100.00
74045;BME280;62389;51.412;5.436;2023-12-14T06:54:48;101435.25;;;5.17;100.00
74045;BME280;62389;51.412;5.436;2023-12-14T06:57:14;101443.94;;;5.14;100.00
74045;BME280;62389;51.412;5.436;2023-12-14T06:59:39;101437.03;;;5.13;100.00
74045;BME280;62389;51.412;5.436;2023-12-14T07:02:05;101446.53;;;5.11;100.00
74045;BME280;62389;51.412;5.436;2023-12-14T07:04:30;101445.72;;;5.09;100.00
74045;BME280;62389;51.412;5.436;2023-12-14T07:06:56;101447.44;;;5.10;100.00
74045;BME280;62389;51.412;5.436;2023-12-14T07:09:21;101462.97;;;5.12;100.00
74045;BME280;62389;51.412;5.436;2023-12-14T07:11:46;101473.34;;;5.13;100.00
74045;BME280;62389;51.412;5.436;2023-12-14T07:14:13;101477.63;;;5.16;100.00
74045;BME280;62389;51.412;5.436;2023-12-14T07:16:40;101480.22;;;5.17;100.00
74045;BME280;62389;51.412;5.436;2023-12-14T07:19:05;101490.59;;;5.17;100.00
74045;BME280;62389;51.412;5.436;2023-12-14T07:21:30;101494.00;;;5.19;100.00
74045;BME280;62389;51.412;5.436;2023-12-14T07:23:56;101504.34;;;5.21;100.00
74045;BME280;62389;51.412;5.436;2023-12-14T07:26:21;101510.41;;;5.22;100.00
74045;BME280;62389;51.412;5.436;2023-12-14T07:28:46;101517.31;;;5.23;100.00
74045;BME280;62389;51.412;5.436;2023-12-14T07:31:12;101518.22;;;5.18;100.00
74045;BME280;62389;51.412;5.436;2023-12-14T07:33:37;101531.19;;;5.18;100.00
74045;BME280;62389;51.412;5.436;2023-12-14T07:36:03;101535.53;;;5.16;100.00
74045;BME280;62389;51.412;5.436;2023-12-14T07:38:30;101537.28;;;5.14;100.00
74045;BME280;62389;51.412;5.436;2023-12-14T07:40:56;101536.47;;;5.12;100.00
74045;BME280;62389;51.412;5.436;2023-12-14T07:43:21;101536.47;;;5.09;100.00
74045;BME280;62389;51.412;5.436;2023-12-14T07:45:47;101533.88;;;5.09;100.00
74045;BME280;62389;51.412;5.436;2023-12-14T07:48:12;101531.31;;;5.06;100.00
74045;BME280;62389;51.412;5.436;2023-12-14T07:50:38;101535.66;;;5.04;100.00
74045;BME280;62389;51.412;5.436;2023-12-14T07:53:03;101543.47;;;5.03;100.00
74045;BME280;62389;51.412;5.436;2023-12-14T07:55:30;101556.41;;;5.01;100.00
74045;BME280;62389;51.412;5.436;2023-12-14T07:57:55;101559.03;;;5.03;100.00
74045;BME280;62389;51.412;5.436;2023-12-14T08:00:21;101568.47;;;5.05;100.00
74045;BME280;62389;51.412;5.436;2023-12-14T08:02:47;101573.66;;;5.07;100.00
74045;BME280;62389;51.412;5.436;2023-12-14T08:05:12;101575.38;;;5.06;100.00
74045;BME280;62389;51.412;5.436;2023-12-14T08:07:37;101581.44;;;5.07;100.00
74045;BME280;62389;51.412;5.436;2023-12-14T08:10:03;101587.50;;;5.07;100.00
74045;BME280;62389;51.412;5.436;2023-12-14T08:12:29;101596.13;;;5.06;100.00
74045;BME280;62389;51.412;5.436;2023-12-14T08:14:54;101587.50;;;5.07;100.00
74045;BME280;62389;51.412;5.436;2023-12-14T08:17:19;101595.28;;;5.07;100.00
74045;BME280;62389;51.412;5.436;2023-12-14T08:19:45;101597.88;;;5.07;100.00
74045;BME280;62389;51.412;5.436;2023-12-14T08:22:11;101611.69;;;5.08;100.00
74045;BME280;62389;51.412;5.436;2023-12-14T08:24:40;101609.97;;;5.05;100.00
74045;BME280;62389;51.412;5.436;2023-12-14T08:27:05;101612.59;;;5.01;100.00
74045;BME280;62389;51.412;5.436;2023-12-14T08:29:31;101616.97;;;4.97;100.00
74045;BME280;62389;51.412;5.436;2023-12-14T08:31:56;101628.19;;;4.99;100.00
74045;BME280;62389;51.412;5.436;2023-12-14T08:34:27;101626.44;;;5.00;100.00
74045;BME280;62389;51.412;5.436;2023-12-14T08:36:52;101629.00;;;5.01;100.00
74045;BME280;62389;51.412;5.436;2023-12-14T08:39:18;101631.63;;;5.03;100.00
74045;BME280;62389;51.412;5.436;2023-12-14T08:41:45;101641.97;;;5.01;100.00
74045;BME280;62389;51.412;5.436;2023-12-14T08:44:10;101643.72;;;5.01;100.00
74045;BME280;62389;51.412;5.436;2023-12-14T08:46:41;101640.25;;;5.00;100.00
74045;BME280;62389;51.412;5.436;2023-12-14T08:49:07;101644.59;;;5.00;100.00
74045;BME280;62389;51.412;5.436;2023-12-14T08:51:32;101655.84;;;4.99;100.00
74045;BME280;62389;51.412;5.436;2023-12-14T08:53:58;101662.75;;;4.98;100.00
74045;BME280;62389;51.412;5.436;2023-12-14T08:56:23;101667.94;;;5.00;100.00
74045;BME280;62389;51.412;5.436;2023-12-14T08:58:48;101683.47;;;5.01;100.00
74045;BME280;62389;51.412;5.436;2023-12-14T09:01:19;101677.44;;;5.02;100.00
74045;BME280;62389;51.412;5.436;2023-12-14T09:03:46;101668.78;;;5.03;100.00
74045;BME280;62389;51.412;5.436;2023-12-14T09:06:11;101672.25;;;5.02;100.00
74045;BME280;62389;51.412;5.436;2023-12-14T09:08:36;101683.44;;;5.04;100.00
74045;BME280;62389;51.412;5.436;2023-12-14T09:11:02;101673.09;;;5.03;100.00
74045;BME280;62389;51.412;5.436;2023-12-14T09:13:27;101689.47;;;5.06;100.00
74045;BME280;62389;51.412;5.436;2023-12-14T09:15:53;101698.13;;;5.08;100.00
74045;BME280;62389;51.412;5.436;2023-12-14T09:18:19;101695.53;;;5.08;100.00
74045;BME280;62389;51.412;5.436;2023-12-14T09:20:46;101706.75;;;5.10;100.00
74045;BME280;62389;51.412;5.436;2023-12-14T09:23:11;101711.94;;;5.10;100.00
74045;BME280;62389;51.412;5.436;2023-12-14T09:25:36;101719.72;;;5.09;100.00
74045;BME280;62389;51.412;5.436;2023-12-14T09:28:02;101718.88;;;5.05;100.00
74045;BME280;62389;51.412;5.436;2023-12-14T09:30:27;101727.53;;;5.04;100.00
74045;BME280;62389;51.412;5.436;2023-12-14T09:32:53;101728.38;;;5.06;100.00
74045;BME280;62389;51.412;5.436;2023-12-14T09:35:18;101744.78;;;5.10;100.00
74045;BME280;62389;51.412;5.436;2023-12-14T09:37:43;101743.88;;;5.14;100.00
74045;BME280;62389;51.412;5.436;2023-12-14T09:40:09;101743.00;;;5.16;100.00
74045;BME280;62389;51.412;5.436;2023-12-14T09:42:38;101755.97;;;5.18;100.00
74045;BME280;62389;51.412;5.436;2023-12-14T09:45:04;101755.06;;;5.20;100.00
74045;BME280;62389;51.412;5.436;2023-12-14T09:47:31;101767.16;;;5.22;100.00
74045;BME280;62389;51.412;5.436;2023-12-14T09:49:58;101774.09;;;5.23;100.00
74045;BME280;62389;51.412;5.436;2023-12-14T09:52:24;101770.63;;;5.20;100.00
74045;BME280;62389;51.412;5.436;2023-12-14T09:54:49;101778.41;;;5.20;100.00
74045;BME280;62389;51.412;5.436;2023-12-14T09:57:14;101781.03;;;5.16;100.00
74045;BME280;62389;51.412;5.436;2023-12-14T09:59:40;101777.63;;;5.12;100.00
74045;BME280;62389;51.412;5.436;2023-12-14T10:02:11;101786.22;;;5.16;100.00
74045;BME280;62389;51.412;5.436;2023-12-14T10:04:37;101792.25;;;5.19;100.00
74045;BME280;62389;51.412;5.436;2023-12-14T10:07:02;101792.25;;;5.21;100.00
74045;BME280;62389;51.412;5.436;2023-12-14T10:09:32;101799.19;;;5.22;100.00
74045;BME280;62389;51.412;5.436;2023-12-14T10:12:08;101806.09;;;5.23;100.00
74045;BME280;62389;51.412;5.436;2023-12-14T10:14:35;101806.94;;;5.20;100.00
74045;BME280;62389;51.412;5.436;2023-12-14T10:17:21;101815.59;;;5.23;100.00
74045;BME280;62389;51.412;5.436;2023-12-14T10:19:48;101818.19;;;5.23;100.00
74045;BME280;62389;51.412;5.436;2023-12-14T10:22:14;101818.19;;;5.23;100.00
74045;BME280;62389;51.412;5.436;2023-12-14T10:24:44;101822.50;;;5.24;100.00
74045;BME280;62389;51.412;5.436;2023-12-14T10:27:10;101824.25;;;5.23;100.00
74045;BME280;62389;51.412;5.436;2023-12-14T10:29:39;101825.94;;;5.26;100.00
74045;BME280;62389;51.412;5.436;2023-12-14T10:32:05;101825.94;;;5.26;100.00
74045;BME280;62389;51.412;5.436;2023-12-14T10:34:34;101827.66;;;5.27;100.00
74045;BME280;62389;51.412;5.436;2023-12-14T10:37:00;101825.94;;;5.26;100.00
74045;BME280;62389;51.412;5.436;2023-12-14T10:39:26;101823.38;;;5.24;100.00
74045;BME280;62389;51.412;5.436;2023-12-14T10:41:52;101827.69;;;5.20;100.00
74045;BME280;62389;51.412;5.436;2023-12-14T10:44:26;101817.38;;;5.17;100.00
74045;BME280;62389;51.412;5.436;2023-12-14T10:46:55;101820.81;;;5.16;100.00
74045;BME280;62389;51.412;5.436;2023-12-14T10:49:26;101825.97;;;5.19;100.00
74045;BME280;62389;51.412;5.436;2023-12-14T10:51:52;101826.84;;;5.23;100.00
74045;BME280;62389;51.412;5.436;2023-12-14T10:54:21;101834.59;;;5.25;100.00
74045;BME280;62389;51.412;5.436;2023-12-14T10:56:47;101838.91;;;5.26;100.00
74045;BME280;62389;51.412;5.436;2023-12-14T10:59:15;101838.94;;;5.21;100.00
74045;BME280;62389;51.412;5.436;2023-12-14T11:01:42;101844.16;;;5.18;100.00
74045;BME280;62389;51.412;5.436;2023-12-14T11:04:07;101852.81;;;5.15;100.00
74045;BME280;62389;51.412;5.436;2023-12-14T11:06:39;101846.75;;;5.12;100.00
74045;BME280;62389;51.412;5.436;2023-12-14T11:09:06;101843.31;;;5.11;100.00
74045;BME280;62389;51.412;5.436;2023-12-14T11:14:08;101850.16;;;5.28;100.00
74045;BME280;62389;51.412;5.436;2023-12-14T11:16:36;101859.63;;;5.33;100.00
74045;BME280;62389;51.412;5.436;2023-12-14T11:21:46;101867.34;;;5.41;100.00
74045;BME280;62389;51.412;5.436;2023-12-14T11:24:12;101867.34;;;5.44;100.00
74045;BME280;62389;51.412;5.436;2023-12-14T11:26:38;101872.50;;;5.47;100.00
74045;BME280;62389;51.412;5.436;2023-12-14T11:29:03;101877.69;;;5.50;100.00
74045;BME280;62389;51.412;5.436;2023-12-14T11:31:29;101890.66;;;5.50;100.00
74045;BME280;62389;51.412;5.436;2023-12-14T11:33:55;101891.50;;;5.51;100.00
74045;BME280;62389;51.412;5.436;2023-12-14T11:36:21;101888.91;;;5.51;100.00
74045;BME280;62389;51.412;5.436;2023-12-14T11:38:48;101888.06;;;5.47;100.00
74045;BME280;62389;51.412;5.436;2023-12-14T11:41:13;101894.16;;;5.48;100.00
74045;BME280;62389;51.412;5.436;2023-12-14T11:43:40;101892.41;;;5.48;100.00
74045;BME280;62389;51.412;5.436;2023-12-14T11:46:06;101891.56;;;5.48;100.00
74045;BME280;62389;51.412;5.436;2023-12-14T11:48:31;101892.41;;;5.50;100.00
74045;BME280;62389;51.412;5.436;2023-12-14T11:50:57;101898.44;;;5.50;100.00
74045;BME280;62389;51.412;5.436;2023-12-14T11:53:22;101888.91;;;5.52;100.00
74045;BME280;62389;51.412;5.436;2023-12-14T11:55:48;101887.16;;;5.56;100.00
74045;BME280;62389;51.412;5.436;2023-12-14T11:58:15;101894.09;;;5.58;100.00
74045;BME280;62389;51.412;5.436;2023-12-14T12:00:41;101892.34;;;5.56;100.00
74045;BME280;62389;51.412;5.436;2023-12-14T12:03:15;101896.63;;;5.61;100.00
74045;BME280;62389;51.412;5.436;2023-12-14T12:05:46;101900.97;;;5.64;100.00
74045;BME280;62389;51.412;5.436;2023-12-14T12:08:13;101890.84;;;6.41;100.00
74045;BME280;62389;51.412;5.436;2023-12-14T12:10:39;101888.53;;;6.98;100.00
74045;BME280;62389;51.412;5.436;2023-12-14T12:13:16;101888.47;;;7.01;100.00
74045;BME280;62389;51.412;5.436;2023-12-14T12:15:42;101889.75;;;6.65;100.00
74045;BME280;62389;51.412;5.436;2023-12-14T12:18:09;101889.16;;;6.37;100.00
74045;BME280;62389;51.412;5.436;2023-12-14T12:20:35;101896.25;;;6.22;100.00
74045;BME280;62389;51.412;5.436;2023-12-14T12:23:02;101891.88;;;6.21;100.00
74045;BME280;62389;51.412;5.436;2023-12-14T12:25:28;101893.66;;;6.16;100.00
74045;BME280;62389;51.412;5.436;2023-12-14T12:27:54;101898.06;;;6.07;100.00
74045;BME280;62389;51.412;5.436;2023-12-14T12:30:23;101904.19;;;6.00;100.00
74045;BME280;62389;51.412;5.436;2023-12-14T12:32:49;101906.84;;;5.95;100.00
74045;BME280;62389;51.412;5.436;2023-12-14T12:35:17;101901.66;;;5.86;100.00
74045;BME280;62389;51.412;5.436;2023-12-14T12:37:42;101912.13;;;5.77;100.00
74045;BME280;62389;51.412;5.436;2023-12-14T12:40:09;101916.50;;;5.67;100.00
74045;BME280;62389;51.412;5.436;2023-12-14T12:42:34;101914.81;;;5.60;100.00
74045;BME280;62389;51.412;5.436;2023-12-14T12:45:00;101930.44;;;5.52;100.00
74045;BME280;62389;51.412;5.436;2023-12-14T12:47:26;101929.59;;;5.47;100.00
74045;BME280;62389;51.412;5.436;2023-12-14T12:49:51;101936.50;;;5.50;100.00